Time;durP1;ratioP1;P1;durP2;ratioP2;P2;SDS_P1;SDS_P2;PMS_P1;PMS_P2;Temp;Humidity;BMP_temperature;BMP_pressure;BME280_temperature;BME280_humidity;BME280_pressure;Samples;Min_cycle;Max_cycle;Signal;HPM_P1;HPM_P2
2022/08/02 00:00:08;;;;;;;12.45;2.30;;;;;;;17.85;53.64;100141.09;4972126;28;20130;-63
2022/08/02 00:02:35;;;;;;;8.70;2.15;;;;;;;17.83;53.54;100143.06;4972229;28;20054;-63
2022/08/02 00:05:02;;;;;;;6.43;1.85;;;;;;;17.80;53.96;100153.97;4972092;28;20058;-63
2022/08/02 00:07:29;;;;;;;6.88;2.30;;;;;;;17.78;53.86;100151.41;4954845;28;20050;-66
2022/08/02 00:09:56;;;;;;;5.50;2.17;;;;;;;17.78;53.97;100154.06;4971881;28;20046;-65
2022/08/02 00:12:23;;;;;;;5.78;1.70;;;;;;;17.75;54.26;100154.31;4972503;28;20066;-62
2022/08/02 00:14:51;;;;;;;7.68;1.60;;;;;;;17.75;54.49;100156.16;4972195;28;20059;-64
2022/08/02 00:17:18;;;;;;;10.65;2.65;;;;;;;17.74;54.04;100151.78;4955047;28;20054;-65
2022/08/02 00:19:44;;;;;;;3.55;2.10;;;;;;;17.73;54.06;100142.97;4971705;28;20051;-64
2022/08/02 00:22:11;;;;;;;5.32;2.13;;;;;;;17.73;54.36;100158.06;4972045;28;20451;-63
2022/08/02 00:24:39;;;;;;;5.90;2.40;;;;;;;17.69;54.59;100152.16;4971994;28;20055;-63
2022/08/02 00:27:07;;;;;;;6.85;2.15;;;;;;;17.67;54.43;100148.78;4972200;28;20387;-64
2022/08/02 00:29:36;;;;;;;8.32;2.10;;;;;;;17.63;54.39;100140.19;4971944;28;20151;-62
2022/08/02 00:32:18;;;;;;;;;;;;;;;17.61;54.03;100154.59;4957695;28;20109;-62
2022/08/02 00:34:45;;;;;;;8.30;2.30;;;;;;;17.62;53.96;100149.16;4972179;28;19925;-63
2022/08/02 00:37:13;;;;;;;8.27;2.22;;;;;;;17.57;54.42;100149.50;4972065;28;20058;-63
2022/08/02 00:39:43;;;;;;;7.88;2.63;;;;;;;17.53;54.48;100148.06;4954644;28;20078;-66
2022/08/02 00:42:13;;;;;;;5.05;2.00;;;;;;;17.49;55.23;100143.97;4954999;28;20054;-63
2022/08/02 00:44:40;;;;;;;7.40;2.45;;;;;;;17.48;54.54;100142.28;4954540;28;20495;-64
2022/08/02 00:47:07;;;;;;;4.47;2.25;;;;;;;17.46;54.74;100141.56;4954641;28;20129;-64
2022/08/02 00:49:34;;;;;;;4.68;2.15;;;;;;;17.45;54.71;100147.84;4954601;28;20062;-63
2022/08/02 00:52:01;;;;;;;5.90;2.28;;;;;;;17.43;54.57;100136.47;4971914;28;20059;-63
2022/08/02 00:54:27;;;;;;;5.18;2.38;;;;;;;17.39;54.51;100135.88;4971790;28;20054;-62
2022/08/02 00:56:54;;;;;;;6.00;2.05;;;;;;;17.36;54.74;100137.94;4971756;28;20062;-66
2022/08/02 00:59:21;;;;;;;8.75;2.55;;;;;;;17.31;54.55;100141.78;4954358;28;20131;-65
2022/08/02 01:01:48;;;;;;;9.00;2.38;;;;;;;17.26;54.98;100138.66;4974723;28;20384;-63
2022/08/02 01:04:24;;;;;;;8.05;2.17;;;;;;;17.23;55.06;100138.91;4975572;28;20082;-64
2022/08/02 01:07:05;;;;;;;6.30;2.10;;;;;;;17.23;55.33;100138.06;4975288;28;20534;-64
2022/08/02 01:09:43;;;;;;;7.25;2.25;;;;;;;17.22;55.50;100137.22;4975047;28;20058;-66
2022/08/02 01:12:10;;;;;;;5.38;1.98;;;;;;;17.22;55.45;100142.53;4958037;28;20054;-63
2022/08/02 01:14:41;;;;;;;10.63;2.47;;;;;;;17.21;55.68;100140.84;4958239;28;20051;-63
2022/08/02 01:17:31;;;;;;;4.18;1.83;;;;;;;17.19;55.96;100140.09;4975273;28;20055;-66
2022/08/02 01:20:07;;;;;;;5.75;2.22;;;;;;;17.18;56.13;100138.41;4975359;28;20121;-64
2022/08/02 01:23:32;;;;;;;6.65;2.03;;;;;;;17.16;56.40;100138.53;4974911;28;20047;-63
2022/08/02 01:26:27;;;;;;;5.05;1.98;;;;;;;17.18;56.03;100141.06;4960008;28;20319;-62
2022/08/02 01:29:09;;;;;;;4.50;1.98;;;;;;;17.22;55.82;100144.34;4975088;28;20431;-64
2022/08/02 01:31:47;;;;;;;5.38;1.98;;;;;;;17.19;56.26;100146.28;4975033;28;20047;-63
2022/08/02 01:34:23;;;;;;;4.88;1.98;;;;;;;17.19;56.33;100146.28;4957865;28;20058;-62
2022/08/02 01:36:59;;;;;;;5.00;1.80;;;;;;;17.18;56.59;100135.75;4957567;28;20051;-63
2022/08/02 01:39:29;;;;;;;3.03;1.80;;;;;;;17.20;56.11;100144.47;4957481;28;20051;-63
2022/08/02 01:42:00;;;;;;;5.15;2.03;;;;;;;17.21;56.02;100137.34;4974991;28;20051;-64
2022/08/02 01:44:29;;;;;;;6.65;2.45;;;;;;;17.19;55.94;100132.97;4972640;28;20053;-63
2022/08/02 01:47:00;;;;;;;5.47;1.70;;;;;;;17.19;56.07;100137.44;4974451;28;20047;-69
2022/08/02 01:49:29;;;;;;;3.05;1.88;;;;;;;17.18;56.24;100131.31;4958250;28;20051;-63
2022/08/02 01:54:44;;;;;;;3.05;1.58;;;;;;;17.18;56.10;100141.06;4955399;29;20058;-64
2022/08/02 01:57:13;;;;;;;6.40;1.90;;;;;;;17.16;56.56;100143.84;4955107;29;20051;-63
2022/08/02 01:59:42;;;;;;;8.85;2.60;;;;;;;17.13;56.30;100133.47;4954852;29;20047;-66
2022/08/02 02:02:11;;;;;;;8.02;2.22;;;;;;;17.14;56.08;100134.31;4937927;29;20062;-63
2022/08/02 02:04:39;;;;;;;7.93;2.20;;;;;;;17.14;56.37;100129.00;4955198;29;20142;-63
2022/08/02 02:07:07;;;;;;;7.22;2.13;;;;;;;17.14;56.49;100129.84;4954825;29;20047;-65
2022/08/02 02:09:37;;;;;;;3.33;1.90;;;;;;;17.13;56.63;100125.50;4937731;29;20133;-62
2022/08/02 02:12:18;;;;;;;6.43;2.10;;;;;;;17.13;56.30;100122.84;4938372;29;20118;-65
2022/08/02 02:14:47;;;;;;;6.40;2.30;;;;;;;17.12;56.50;100114.97;4955185;29;20055;-62
2022/08/02 02:17:20;;;;;;;4.45;1.80;;;;;;;17.11;56.61;100121.25;4954889;29;20051;-62
2022/08/02 02:20:12;;;;;;;4.72;1.65;;;;;;;17.10;56.24;100114.25;4954705;29;20055;-63
2022/08/02 02:22:39;;;;;;;5.20;1.95;;;;;;;17.08;56.22;100119.69;4954676;29;20063;-63
2022/08/02 02:25:08;;;;;;;5.57;2.20;;;;;;;17.05;56.69;100114.63;4954599;29;20055;-65
2022/08/02 02:27:40;;;;;;;5.07;2.20;;;;;;;17.04;56.67;100111.09;4938007;29;20047;-63
2022/08/02 02:30:11;;;;;;;5.50;1.88;;;;;;;17.03;56.67;100104.06;4937722;29;20053;-62
2022/08/02 02:32:39;;;;;;;5.32;1.90;;;;;;;17.02;56.83;100104.19;4954435;29;20138;-63
2022/08/02 02:35:09;;;;;;;8.13;2.78;;;;;;;17.00;57.07;100093.66;4954343;29;20102;-64
2022/08/02 02:37:37;;;;;;;7.93;2.13;;;;;;;17.00;57.13;100088.34;4954492;29;20051;-64
2022/08/02 02:40:05;;;;;;;6.68;2.20;;;;;;;17.00;57.19;100095.47;4936969;29;20055;-63
2022/08/02 02:42:33;;;;;;;8.38;2.13;;;;;;;16.99;57.33;100088.47;4937226;29;20057;-63
2022/08/02 02:45:02;;;;;;;8.50;2.63;;;;;;;16.98;57.54;100089.44;4937178;29;20051;-63
2022/08/02 02:47:31;;;;;;;5.35;2.13;;;;;;;16.98;57.76;100081.47;4937154;29;20055;-65
2022/08/02 02:50:08;;;;;;;6.22;2.13;;;;;;;16.97;57.39;100083.25;4954238;29;20062;-68
2022/08/02 02:52:37;;;;;;;9.68;2.33;;;;;;;16.96;57.35;100086.88;4937265;29;20112;-66
2022/08/02 02:55:06;;;;;;;5.05;2.15;;;;;;;16.95;57.26;100085.22;4954166;29;20051;-63
2022/08/02 02:57:34;;;;;;;5.95;2.20;;;;;;;16.96;57.35;100080.75;4936895;29;20250;-64
2022/08/02 03:00:03;;;;;;;6.82;1.88;;;;;;;16.94;57.57;100092.31;4953927;29;20055;-67
2022/08/02 03:02:30;;;;;;;7.43;2.30;;;;;;;16.93;57.29;100092.44;4953781;29;20055;-63
2022/08/02 03:05:01;;;;;;;5.00;2.22;;;;;;;16.92;57.60;100090.75;4954051;29;20113;-65
2022/08/02 03:07:28;;;;;;;4.93;2.00;;;;;;;16.91;57.27;100092.59;4953804;29;20051;-63
2022/08/02 03:09:55;;;;;;;7.80;2.10;;;;;;;16.90;57.26;100098.03;4953605;29;20055;-62
2022/08/02 03:12:23;;;;;;;7.13;2.10;;;;;;;16.88;57.49;100105.25;4953584;29;20054;-65
2022/08/02 03:14:58;;;;;;;5.18;2.03;;;;;;;16.84;57.23;100102.00;4937665;29;20050;-62
2022/08/02 03:17:25;;;;;;;7.55;2.08;;;;;;;16.83;57.00;100105.63;4936833;29;20164;-63
2022/08/02 03:19:52;;;;;;;4.63;2.00;;;;;;;16.80;56.99;100100.53;4953311;29;20050;-65
2022/08/02 03:22:19;;;;;;;6.45;1.80;;;;;;;16.78;57.21;100097.16;4953705;29;20098;-64
2022/08/02 03:24:45;;;;;;;4.57;1.67;;;;;;;16.75;57.11;100092.09;4953233;28;20047;-67
2022/08/02 03:27:12;;;;;;;6.57;1.80;;;;;;;16.72;57.34;100077.22;4953357;29;20055;-65
2022/08/02 03:29:38;;;;;;;7.50;2.20;;;;;;;16.70;57.32;100065.84;4953457;29;20055;-63
2022/08/02 03:32:05;;;;;;;7.78;2.15;;;;;;;16.68;57.64;100063.31;4953264;29;20051;-63
2022/08/02 03:34:32;;;;;;;4.10;1.73;;;;;;;16.67;57.61;100056.31;4953434;29;20501;-63
2022/08/02 03:37:00;;;;;;;3.92;1.83;;;;;;;16.67;57.63;100060.78;4953391;29;20047;-63
2022/08/02 03:39:27;;;;;;;4.68;1.77;;;;;;;16.65;57.17;100062.72;4935974;29;20051;-62
2022/08/02 03:41:54;;;;;;;7.97;2.53;;;;;;;16.62;57.46;100065.59;4953303;29;20082;-66
2022/08/02 03:44:22;;;;;;;5.65;1.70;;;;;;;16.59;57.26;100063.22;4953480;29;20484;-63
2022/08/02 03:46:50;;;;;;;4.07;1.90;;;;;;;16.56;57.30;100058.13;4936241;29;20051;-63
2022/08/02 03:49:18;;;;;;;4.85;1.77;;;;;;;16.53;56.97;100067.19;4935928;29;20121;-63
2022/08/02 03:51:48;;;;;;;6.32;1.67;;;;;;;16.49;57.32;100069.22;4936139;29;20071;-63
2022/08/02 03:54:16;;;;;;;10.23;2.30;;;;;;;16.46;57.39;100066.81;4953087;29;20102;-63
2022/08/02 03:56:58;;;;;;;6.43;1.83;;;;;;;16.44;57.47;100062.59;4953463;29;20055;-65
2022/08/02 03:59:25;;;;;;;4.15;1.92;;;;;;;16.41;57.54;100066.31;4953108;29;20051;-63
2022/08/02 04:02:00;;;;;;;4.10;1.65;;;;;;;16.38;57.65;100063.88;4953278;29;20074;-62
2022/08/02 04:04:28;;;;;;;6.72;1.77;;;;;;;16.36;57.59;100071.13;4953331;29;20058;-64
2022/08/02 04:06:58;;;;;;;3.08;2.15;;;;;;;16.31;58.27;100075.94;4953285;29;20280;-63
2022/08/02 04:09:25;;;;;;;5.53;1.95;;;;;;;16.31;57.76;100079.47;4953439;29;20050;-63
2022/08/02 04:11:51;;;;;;;5.53;1.98;;;;;;;16.30;57.91;100074.25;4953571;29;20411;-63
2022/08/02 04:14:18;;;;;;;4.75;2.15;;;;;;;16.28;58.12;100074.38;4953461;29;20051;-62
2022/08/02 04:16:51;;;;;;;6.60;1.80;;;;;;;16.26;58.61;100074.47;4953521;29;20043;-64
2022/08/02 04:19:26;;;;;;;5.13;1.50;;;;;;;16.25;59.41;100071.94;4935211;29;20098;-63
2022/08/02 04:21:54;;;;;;;4.93;1.95;;;;;;;16.28;58.59;100061.94;4952986;29;20110;-67
2022/08/02 04:24:26;;;;;;;5.85;1.92;;;;;;;16.31;59.20;100067.97;4936551;29;20047;-64
2022/08/02 04:26:57;;;;;;;3.17;1.80;;;;;;;16.32;59.56;100065.19;4936106;29;20106;-63
2022/08/02 04:29:33;;;;;;;4.70;1.95;;;;;;;16.37;58.76;100073.66;4952554;29;20138;-62
2022/08/02 04:32:01;;;;;;;3.80;1.73;;;;;;;16.40;58.81;100077.88;4936082;29;20134;-62
2022/08/02 04:34:29;;;;;;;6.03;1.88;;;;;;;16.44;58.98;100082.00;4952727;28;20050;-62
2022/08/02 04:36:57;;;;;;;6.35;2.10;;;;;;;16.47;59.14;100084.44;4956201;29;20043;-63
2022/08/02 04:39:25;;;;;;;6.65;2.90;;;;;;;16.51;59.18;100082.38;4956785;29;20051;-63
2022/08/02 04:41:52;;;;;;;7.80;2.78;;;;;;;16.55;59.41;100089.16;4956649;29;20051;-66
2022/08/02 04:44:23;;;;;;;5.32;2.50;;;;;;;16.59;59.40;100079.97;4956547;29;20066;-62
2022/08/02 04:46:51;;;;;;;6.85;2.00;;;;;;;16.64;59.27;100082.28;4956824;29;20047;-63
2022/08/02 04:49:17;;;;;;;3.70;2.00;;;;;;;16.68;59.37;100076.59;4956622;29;20486;-64
2022/08/02 04:51:44;;;;;;;5.82;1.90;;;;;;;16.73;59.32;100076.25;4956612;29;20054;-63
2022/08/02 04:54:12;;;;;;;5.80;2.40;;;;;;;16.79;59.58;100074.94;4956704;29;20047;-63
2022/08/02 04:56:39;;;;;;;8.40;2.00;;;;;;;16.84;59.53;100071.91;4956826;29;20058;-62
2022/08/02 04:59:06;;;;;;;6.45;2.05;;;;;;;16.89;59.55;100080.34;4956142;29;20257;-65
2022/08/02 05:01:34;;;;;;;9.85;2.58;;;;;;;16.94;59.49;100086.19;4939370;29;20539;-62
2022/08/02 05:04:02;;;;;;;7.90;2.42;;;;;;;16.99;59.63;100084.00;4956279;29;20047;-63
2022/08/02 05:06:28;;;;;;;5.72;2.35;;;;;;;17.05;59.53;100083.53;4938896;29;20047;-65
2022/08/02 05:08:55;;;;;;;11.82;2.95;;;;;;;17.11;59.59;100087.53;4956498;29;20050;-63
2022/08/02 05:11:23;;;;;;;9.05;2.63;;;;;;;17.19;59.75;100092.22;4955305;29;20384;-67
2022/08/02 05:14:01;;;;;;;7.82;2.53;;;;;;;17.24;59.55;100090.06;4940439;29;20047;-65
2022/08/02 05:16:28;;;;;;;7.85;2.60;;;;;;;17.31;59.69;100087.75;4955769;29;20110;-62
2022/08/02 05:19:00;;;;;;;7.68;2.83;;;;;;;17.39;59.82;100084.47;4955131;29;20079;-67
2022/08/02 05:21:28;;;;;;;8.43;2.67;;;;;;;17.45;59.53;100087.47;4939349;29;20079;-66
2022/08/02 05:23:55;;;;;;;6.78;2.63;;;;;;;17.52;59.70;100094.94;4955675;29;20102;-63
2022/08/02 05:26:22;;;;;;;7.75;2.72;;;;;;;17.57;59.57;100090.97;4955695;29;20059;-62
2022/08/02 05:28:48;;;;;;;6.72;2.90;;;;;;;17.65;59.56;100094.81;4955508;29;20071;-66
2022/08/02 05:31:15;;;;;;;10.90;3.15;;;;;;;17.70;59.67;100088.16;4956362;28;20109;-62
2022/08/02 05:33:42;;;;;;;7.38;3.30;;;;;;;17.77;59.67;100082.31;4956260;29;20130;-62
2022/08/02 05:36:08;;;;;;;5.60;2.72;;;;;;;17.82;59.74;100086.28;4955964;29;20129;-63
2022/08/02 05:38:36;;;;;;;8.77;3.03;;;;;;;17.87;59.59;100082.41;4954728;29;20047;-63
2022/08/02 05:41:04;;;;;;;9.60;3.55;;;;;;;17.91;59.77;100084.66;4955067;29;20398;-63
2022/08/02 05:43:31;;;;;;;9.05;2.88;;;;;;;17.97;59.61;100083.31;4938391;29;20143;-63
2022/08/02 05:45:58;;;;;;;7.43;2.88;;;;;;;18.01;59.88;100083.94;4937488;28;20054;-63
2022/08/02 05:48:25;;;;;;;7.38;2.78;;;;;;;18.04;59.80;100081.84;4938056;29;20047;-65
2022/08/02 05:51:12;;;;;;;6.47;3.28;;;;;;;18.04;59.84;100076.50;4955142;29;20051;-64
2022/08/02 05:53:49;;;;;;;6.22;2.75;;;;;;;18.13;59.97;100076.75;4955456;29;20051;-62
2022/08/02 05:56:33;;;;;;;11.35;3.30;;;;;;;18.13;59.89;100076.75;4955076;29;20044;-63
2022/08/02 05:58:59;;;;;;;6.63;2.67;;;;;;;18.20;59.81;100081.44;4954553;29;20058;-63
2022/08/02 06:01:38;;;;;;;5.70;2.70;;;;;;;18.22;60.30;100078.63;4954917;29;20061;-63
2022/08/02 06:04:13;;;;;;;8.60;3.20;;;;;;;18.26;59.98;100072.06;4955207;29;20055;-64
2022/08/02 06:06:43;;;;;;;10.52;3.45;;;;;;;18.29;60.14;100074.50;4955031;29;20070;-62
2022/08/02 06:09:15;;;;;;;11.23;3.70;;;;;;;18.32;60.06;100082.19;4936718;29;20086;-64
2022/08/02 06:11:51;;;;;;;9.73;3.15;;;;;;;18.37;59.68;100087.16;4937698;29;20082;-65
2022/08/02 06:14:31;;;;;;;8.30;3.17;;;;;;;18.39;59.99;100077.19;4954228;29;20179;-64
2022/08/02 06:17:02;;;;;;;10.95;4.18;;;;;;;18.44;60.07;100080.34;4954222;29;20503;-62
2022/08/02 06:19:31;;;;;;;6.68;3.53;;;;;;;18.49;60.01;100079.94;4936792;29;20083;-63
2022/08/02 06:22:15;;;;;;;8.65;3.67;;;;;;;18.53;59.98;100081.34;4954302;29;20481;-62
2022/08/02 06:25:03;;;;;;;9.63;3.45;;;;;;;18.58;60.28;100065.81;4954561;29;20047;-63
2022/08/02 06:27:30;;;;;;;8.55;3.38;;;;;;;18.61;60.29;100065.53;4954187;29;20051;-62
2022/08/02 06:29:57;;;;;;;8.88;3.70;;;;;;;18.66;60.50;100049.16;4937006;29;20058;-62
2022/08/02 06:32:26;;;;;;;11.35;3.28;;;;;;;18.70;60.64;100047.06;4954157;29;20058;-65
2022/08/02 06:34:53;;;;;;;8.95;3.00;;;;;;;18.74;60.40;100044.00;4954028;29;20476;-63
2022/08/02 06:37:32;;;;;;;8.75;3.45;;;;;;;18.77;60.79;100053.56;4954726;29;20515;-66
2022/08/02 06:40:23;;;;;;;8.27;3.10;;;;;;;18.85;61.12;100053.75;4954022;29;20054;-62
2022/08/02 06:42:54;;;;;;;10.15;3.80;;;;;;;18.94;60.68;100056.56;4954122;29;20058;-66
2022/08/02 06:45:21;;;;;;;9.88;3.70;;;;;;;18.99;60.42;100052.50;4954208;29;20055;-63
2022/08/02 06:47:47;;;;;;;9.38;3.53;;;;;;;19.05;60.66;100068.94;4953688;29;20051;-63
2022/08/02 06:50:14;;;;;;;9.88;3.50;;;;;;;19.11;60.38;100074.63;4953675;29;20062;-62
2022/08/02 06:52:41;;;;;;;7.47;3.67;;;;;;;19.17;60.65;100069.75;4954287;29;20051;-63
2022/08/02 06:55:08;;;;;;;10.73;3.42;;;;;;;19.23;60.51;100074.53;4954136;29;20411;-62
2022/08/02 06:57:35;;;;;;;7.80;3.30;;;;;;;19.30;60.46;100077.47;4953597;28;20522;-62
2022/08/02 07:00:07;;;;;;;7.95;3.50;;;;;;;19.35;60.34;100067.25;4953150;29;20059;-64
2022/08/02 07:02:35;;;;;;;8.77;3.28;;;;;;;19.44;60.28;100066.41;4953941;29;20058;-62
2022/08/02 07:05:03;;;;;;;8.85;3.33;;;;;;;19.51;60.02;100070.22;4936926;29;20114;-62
2022/08/02 07:07:30;;;;;;;6.82;3.10;;;;;;;19.59;59.93;100072.19;4953732;29;20047;-62
2022/08/02 07:09:57;;;;;;;8.02;3.30;;;;;;;19.67;59.52;100064.34;4953423;29;20070;-67
2022/08/02 07:12:31;;;;;;;6.43;2.70;;;;;;;19.74;58.98;100061.13;4953763;29;20147;-66
2022/08/02 07:15:05;;;;;;;7.40;3.13;;;;;;;19.81;58.79;100058.72;4953613;29;20058;-64
2022/08/02 07:17:32;;;;;;;4.68;2.50;;;;;;;19.91;58.90;100059.56;4936645;29;20051;-63
2022/08/02 07:19:59;;;;;;;10.68;2.95;;;;;;;19.98;58.77;100067.84;4953388;29;20153;-67
2022/08/02 07:22:27;;;;;;;9.45;2.80;;;;;;;20.05;58.65;100066.34;4936324;29;20059;-66
2022/08/02 07:24:56;;;;;;;6.13;2.72;;;;;;;20.14;58.38;100059.28;4953457;29;20412;-63
2022/08/02 07:27:23;;;;;;;7.80;2.85;;;;;;;20.22;58.25;100071.97;4936353;29;20059;-66
2022/08/02 07:29:50;;;;;;;7.50;3.10;;;;;;;20.30;58.19;100064.06;4936398;29;20102;-62
2022/08/02 07:32:18;;;;;;;6.78;2.65;;;;;;;20.37;58.10;100067.84;4953316;29;20055;-66
2022/08/02 07:34:46;;;;;;;6.72;2.75;;;;;;;20.45;57.67;100059.13;4936479;29;20047;-65
2022/08/02 07:37:20;;;;;;;5.65;2.70;;;;;;;20.53;57.70;100051.19;4953443;29;20062;-63
2022/08/02 07:40:09;;;;;;;8.63;3.33;;;;;;;20.63;57.84;100048.47;4953325;29;20078;-67
2022/08/02 07:42:41;;;;;;;;;;;;;;;20.70;57.79;100040.72;4937577;29;20487;-63
2022/08/02 07:45:08;;;;;;;7.15;2.78;;;;;;;20.84;57.55;100042.06;4963061;28;19933;-65
2022/08/02 07:47:39;;;;;;;6.93;2.67;;;;;;;20.90;57.62;100040.69;4972257;28;20039;-62
2022/08/02 07:50:07;;;;;;;6.25;3.00;;;;;;;20.98;57.58;100040.78;4959156;28;20058;-63
2022/08/02 07:52:35;;;;;;;8.65;3.20;;;;;;;21.06;57.40;100040.03;4936405;29;20059;-63
2022/08/02 07:55:01;;;;;;;5.68;2.65;;;;;;;21.14;57.50;100032.09;4936104;29;20048;-62
2022/08/02 07:57:28;;;;;;;5.70;2.92;;;;;;;21.21;56.95;100041.22;4953238;29;20055;-63
2022/08/02 07:59:55;;;;;;;6.70;3.47;;;;;;;21.30;57.38;100041.31;4952880;29;20066;-63
2022/08/02 08:02:23;;;;;;;4.68;2.75;;;;;;;21.38;57.03;100037.88;4952907;29;20050;-62
2022/08/02 08:04:50;;;;;;;9.82;3.38;;;;;;;21.45;56.90;100030.91;4952683;29;20047;-65
2022/08/02 08:07:17;;;;;;;9.98;3.03;;;;;;;21.55;56.74;100036.19;4935592;29;20055;-62
2022/08/02 08:09:46;;;;;;;9.88;3.45;;;;;;;21.63;56.87;100028.22;4951839;28;20051;-64
2022/08/02 08:12:15;;;;;;;6.45;3.30;;;;;;;21.74;56.75;100028.03;4952889;29;20153;-63
2022/08/02 08:14:42;;;;;;;11.20;3.40;;;;;;;21.86;56.68;100025.09;4952711;29;20074;-65
2022/08/02 08:17:10;;;;;;;7.47;3.30;;;;;;;21.98;56.39;100033.75;4935845;29;20066;-62
2022/08/02 08:19:36;;;;;;;7.65;3.80;;;;;;;22.10;56.18;100021.75;4952242;29;20048;-64
2022/08/02 08:22:18;;;;;;;9.32;3.80;;;;;;;22.25;55.79;100027.41;4937700;29;20047;-63
2022/08/02 08:24:46;;;;;;;8.07;4.07;;;;;;;22.37;55.38;100021.78;4920257;29;20051;-62
2022/08/02 08:27:14;;;;;;;8.52;3.63;;;;;;;22.48;54.90;100024.19;4952749;29;20086;-62
2022/08/02 08:29:42;;;;;;;5.93;3.30;;;;;;;22.58;54.38;100018.72;4935651;29;20055;-62
2022/08/02 08:32:09;;;;;;;7.57;3.42;;;;;;;22.65;54.01;100025.16;4952665;29;20052;-65
2022/08/02 08:34:42;;;;;;;5.03;3.00;;;;;;;22.70;53.72;100005.03;4936765;29;20054;-62
2022/08/02 08:37:09;;;;;;;7.35;3.33;;;;;;;22.73;53.83;100012.78;4953002;29;20411;-64
2022/08/02 08:39:43;;;;;;;6.97;2.65;;;;;;;22.77;52.72;100011.47;4952304;29;20055;-64
2022/08/02 08:42:27;;;;;;;5.78;3.22;;;;;;;22.81;53.00;100020.00;4952712;29;20055;-63
2022/08/02 08:44:55;;;;;;;5.80;2.78;;;;;;;22.89;52.92;100025.41;4935787;29;20444;-62
2022/08/02 08:47:31;;;;;;;4.13;2.45;;;;;;;22.96;52.53;100021.09;4935967;29;20053;-65
2022/08/02 08:50:04;;;;;;;5.30;2.55;;;;;;;23.06;51.44;100023.63;4935582;29;20054;-63
2022/08/02 08:52:35;;;;;;;6.72;3.47;;;;;;;23.17;51.63;100017.09;4952489;29;20047;-63
2022/08/02 08:55:04;;;;;;;6.13;2.65;;;;;;;23.28;51.95;100014.13;4952520;29;20058;-63
2022/08/02 08:57:33;;;;;;;9.35;3.15;;;;;;;23.39;52.01;100014.84;4935642;29;20064;-63
2022/08/02 09:00:00;;;;;;;6.00;3.60;;;;;;;23.51;51.43;100023.44;4952223;29;20134;-65
2022/08/02 09:02:27;;;;;;;10.52;3.97;;;;;;;23.61;51.40;100017.88;4952419;29;20051;-67
2022/08/02 09:04:55;;;;;;;7.32;3.55;;;;;;;23.72;51.10;100014.88;4952690;29;20047;-62
2022/08/02 09:07:22;;;;;;;6.60;3.35;;;;;;;23.82;51.31;100020.09;4935613;29;20055;-63
2022/08/02 09:09:49;;;;;;;5.38;3.33;;;;;;;23.91;50.87;100015.53;4935382;29;20063;-65
2022/08/02 09:12:18;;;;;;;7.13;3.30;;;;;;;23.99;51.00;100018.22;4952217;29;20058;-66
2022/08/02 09:14:47;;;;;;;4.75;3.03;;;;;;;24.08;51.08;100014.50;4935540;29;20051;-62
2022/08/02 09:17:16;;;;;;;9.93;3.38;;;;;;;24.16;50.07;100011.03;4935650;29;20138;-65
2022/08/02 09:19:43;;;;;;;6.03;2.72;;;;;;;24.26;50.63;100007.31;4951976;29;20051;-62
2022/08/02 09:22:13;;;;;;;7.55;2.97;;;;;;;24.36;49.97;100010.63;4953900;28;20127;-64
2022/08/02 09:24:50;;;;;;;4.63;2.88;;;;;;;24.46;49.05;100003.22;4956087;29;20099;-63
2022/08/02 09:27:19;;;;;;;3.72;2.42;;;;;;;24.59;49.54;100002.66;4938758;29;20052;-63
2022/08/02 09:29:48;;;;;;;5.40;1.95;;;;;;;24.71;48.15;100005.81;4938302;29;20058;-65
2022/08/02 09:32:45;;;;;;;3.67;2.08;;;;;;;24.82;47.38;100003.75;4941452;29;20059;-62
2022/08/02 09:35:13;;;;;;;4.18;2.10;;;;;;;24.93;47.67;100005.25;4955844;29;20082;-65
2022/08/02 09:38:13;;;;;;;5.95;2.58;;;;;;;25.02;47.25;100014.97;4955509;29;20146;-62
2022/08/02 09:40:41;;;;;;;6.05;2.40;;;;;;;25.08;47.34;100008.84;4955758;29;20414;-62
2022/08/02 09:43:08;;;;;;;4.57;2.22;;;;;;;25.18;47.31;100002.41;4938762;29;20070;-63
2022/08/02 09:45:36;;;;;;;3.78;1.90;;;;;;;25.28;48.04;100002.19;4956003;29;20047;-63
2022/08/02 09:48:07;;;;;;;3.22;2.05;;;;;;;25.37;47.04;100003.78;4955669;29;20444;-71
2022/08/02 09:50:36;;;;;;;6.05;2.38;;;;;;;25.51;45.96;100004.88;4955760;29;20058;-63
2022/08/02 09:53:03;;;;;;;4.22;1.85;;;;;;;25.63;45.78;100006.19;4956184;29;20047;-65
2022/08/02 09:55:30;;;;;;;3.67;2.40;;;;;;;25.72;45.37;99998.03;4955929;29;20051;-63
2022/08/02 09:57:56;;;;;;;4.45;2.70;;;;;;;25.80;45.74;99995.25;4955195;29;20062;-64
2022/08/02 10:00:23;;;;;;;4.88;2.67;;;;;;;25.86;45.86;100005.31;4955451;29;20051;-62
2022/08/02 10:03:11;;;;;;;4.47;2.90;;;;;;;25.93;45.37;100002.72;4955357;29;20283;-63
2022/08/02 10:05:54;;;;;;;3.85;2.40;;;;;;;25.97;45.39;100004.03;4955662;29;20083;-63
2022/08/02 10:08:29;;;;;;;5.28;2.38;;;;;;;26.05;45.74;100000.41;4939184;29;20051;-63
2022/08/02 10:10:59;;;;;;;5.20;2.60;;;;;;;26.14;45.91;99999.31;4938572;29;20078;-65
2022/08/02 10:13:27;;;;;;;4.00;2.05;;;;;;;26.22;46.02;99995.69;4937729;29;20058;-63
2022/08/02 10:15:55;;;;;;;3.63;2.53;;;;;;;26.33;45.60;100007.06;4955176;29;20059;-63
2022/08/02 10:18:22;;;;;;;2.85;2.00;;;;;;;26.44;45.69;99997.66;4954724;29;20051;-64
2022/08/02 10:21:10;;;;;;;5.95;2.53;;;;;;;26.58;45.15;99996.00;4954779;29;20067;-66
2022/08/02 10:23:39;;;;;;;3.90;2.50;;;;;;;26.70;45.40;99985.56;4937997;29;20055;-65
2022/08/02 10:26:07;;;;;;;4.70;2.38;;;;;;;26.83;44.65;99995.69;4955067;29;20321;-64
2022/08/02 10:28:35;;;;;;;5.28;2.22;;;;;;;26.91;44.38;99999.13;4985326;28;20043;-63
2022/08/02 10:31:06;;;;;;;4.97;2.67;;;;;;;26.99;44.21;99989.25;4993000;28;20057;-64
2022/08/02 10:33:37;;;;;;;3.17;1.50;;;;;;;27.06;44.29;99987.47;4974525;28;20498;-63
2022/08/02 10:36:08;;;;;;;3.97;2.42;;;;;;;27.15;44.15;99988.19;4992680;28;20069;-65
2022/08/02 10:38:36;;;;;;;3.75;1.90;;;;;;;27.25;44.90;99993.28;4975226;28;20421;-63
2022/08/02 10:41:03;;;;;;;4.15;1.70;;;;;;;27.37;44.34;99986.34;4992469;28;20061;-63
2022/08/02 10:43:30;;;;;;;2.45;1.58;;;;;;;27.50;44.73;99990.22;4980057;28;20042;-64
2022/08/02 10:46:28;;;;;;;2.75;1.83;;;;;;;27.57;43.84;99983.81;4972976;28;20057;-65
2022/08/02 10:49:17;;;;;;;5.55;2.08;;;;;;;27.74;42.86;99988.16;4972774;28;20062;-62
2022/08/02 10:52:06;;;;;;;4.55;2.33;;;;;;;27.94;43.18;99975.63;4973230;28;20094;-63
2022/08/02 10:54:40;;;;;;;2.47;1.63;;;;;;;28.08;43.32;99973.00;4972251;28;20526;-76
2022/08/02 10:57:14;;;;;;;3.47;1.65;;;;;;;28.28;43.25;99975.00;4972684;28;20053;-63
2022/08/02 10:59:42;;;;;;;2.50;1.52;;;;;;;28.57;44.73;99964.97;4956092;28;20483;-64
2022/08/02 11:02:10;;;;;;;3.42;1.70;;;;;;;28.90;44.71;99971.56;4973068;28;20517;-63
2022/08/02 11:04:42;;;;;;;3.95;2.00;;;;;;;29.29;42.90;99966.47;4973049;28;20090;-64
2022/08/02 11:07:17;;;;;;;4.32;1.92;;;;;;;29.69;42.18;99962.94;4972324;28;20050;-65
2022/08/02 11:09:46;;;;;;;2.38;1.67;;;;;;;30.11;41.63;99974.38;4955690;28;20054;-67
2022/08/02 11:12:15;;;;;;;2.42;1.75;;;;;;;30.50;41.96;99963.63;4973323;28;20053;-63
2022/08/02 11:14:44;;;;;;;8.93;2.08;;;;;;;30.92;41.90;99952.41;4956131;28;20051;-68
2022/08/02 11:17:16;;;;;;;6.15;1.73;;;;;;;31.36;40.05;99959.06;4955970;28;20058;-65
2022/08/02 11:20:11;;;;;;;3.13;1.50;;;;;;;31.76;40.88;99955.19;4955643;28;20106;-64
2022/08/02 11:22:43;;;;;;;4.75;3.03;;;;;;;32.12;36.57;99967.19;4973461;28;20068;-65
2022/08/02 11:25:21;;;;;;;2.15;1.83;;;;;;;32.29;36.92;99961.16;4973292;28;20039;-65
2022/08/02 11:27:54;;;;;;;2.60;1.80;;;;;;;32.43;36.88;99959.09;4972828;28;20082;-67
2022/08/02 11:30:21;;;;;;;5.20;1.75;;;;;;;32.46;37.50;99964.97;4972875;28;20077;-68
2022/08/02 11:32:57;;;;;;;4.05;2.13;;;;;;;32.48;37.11;99960.09;4973057;28;20443;-64
2022/08/02 11:35:35;;;;;;;6.07;1.65;;;;;;;32.48;37.31;99959.28;4972949;28;20051;-65
2022/08/02 11:38:19;;;;;;;2.63;1.98;;;;;;;32.43;36.09;99956.34;4972505;28;20385;-65
2022/08/02 11:40:47;;;;;;;9.00;1.90;;;;;;;32.41;36.16;99953.88;4971564;28;20062;-66
2022/08/02 11:43:23;;;;;;;3.35;1.92;;;;;;;32.32;35.78;99945.19;4972647;28;20455;-65
2022/08/02 11:45:51;;;;;;;3.40;2.15;;;;;;;32.31;35.75;99946.25;4955529;28;20134;-64